createdAt,value
2017-09-15T00:01:08.110Z,91.20
2017-09-15T00:03:35.697Z,91.20
2017-09-15T00:06:04.004Z,91.30
2017-09-15T00:08:32.313Z,91.20
2017-09-15T00:11:00.648Z,91.20
2017-09-15T00:13:28.964Z,91.10
2017-09-15T00:15:57.303Z,91.20
2017-09-15T00:18:25.621Z,90.70
2017-09-15T00:20:53.960Z,90.80
2017-09-15T00:23:22.282Z,90.80
2017-09-15T00:25:50.621Z,90.80
2017-09-15T00:28:18.936Z,90.80
2017-09-15T00:30:47.248Z,90.80
2017-09-15T00:33:15.588Z,90.70
2017-09-15T00:35:43.900Z,90.70
2017-09-15T00:38:12.236Z,90.70
2017-09-15T00:40:40.547Z,90.60
2017-09-15T00:43:08.904Z,90.60
2017-09-15T00:45:37.236Z,90.60
2017-09-15T00:48:05.552Z,90.50
2017-09-15T00:50:33.888Z,90.50
2017-09-15T00:53:02.204Z,90.50
2017-09-15T00:55:30.529Z,90.50
2017-09-15T00:57:58.839Z,90.50
2017-09-15T01:00:27.210Z,90.60
2017-09-15T01:02:55.529Z,90.70
2017-09-15T01:05:23.853Z,90.80
2017-09-15T01:07:52.180Z,90.90
2017-09-15T01:10:20.509Z,90.80
2017-09-15T01:12:48.845Z,90.90
2017-09-15T01:15:17.160Z,90.90
2017-09-15T01:17:45.516Z,90.80
2017-09-15T01:20:13.833Z,90.80
2017-09-15T01:22:42.149Z,90.80
2017-09-15T01:25:10.492Z,90.90
2017-09-15T01:27:38.803Z,90.80
2017-09-15T01:30:07.144Z,90.70
2017-09-15T01:32:35.456Z,90.70
2017-09-15T01:35:03.797Z,90.70
2017-09-15T01:37:32.116Z,90.80
2017-09-15T01:40:00.432Z,90.80
2017-09-15T01:42:28.768Z,90.70
2017-09-15T01:44:59.898Z,90.80
2017-09-15T01:47:28.246Z,90.80
2017-09-15T01:49:56.556Z,90.80
2017-09-15T01:52:24.888Z,90.70
2017-09-15T01:54:53.196Z,90.70
2017-09-15T01:57:21.512Z,90.50
2017-09-15T01:59:49.096Z,90.50
2017-09-15T02:02:16.640Z,90.60
2017-09-15T02:04:44.978Z,90.50
2017-09-15T02:07:13.287Z,90.60
2017-09-15T02:09:41.641Z,90.70
2017-09-15T02:12:09.952Z,90.70
2017-09-15T02:14:38.267Z,90.70
2017-09-15T02:17:06.599Z,90.80
2017-09-15T02:19:34.908Z,90.80
2017-09-15T02:22:03.236Z,90.80
2017-09-15T02:24:31.544Z,90.70
2017-09-15T02:26:59.888Z,90.70
2017-09-15T02:29:28.207Z,90.70
2017-09-15T02:31:56.548Z,90.70
2017-09-15T02:34:24.883Z,90.70
2017-09-15T02:36:53.195Z,90.70
2017-09-15T02:39:20.759Z,90.70
2017-09-15T02:41:49.075Z,90.90
2017-09-15T02:44:17.427Z,90.60
2017-09-15T02:46:45.736Z,90.60
2017-09-15T02:49:14.055Z,90.80
2017-09-15T02:51:42.384Z,90.90
2017-09-15T02:54:10.692Z,91.00
2017-09-15T02:56:39.029Z,90.90
2017-09-15T02:59:07.336Z,90.80
2017-09-15T03:01:35.668Z,90.70
2017-09-15T03:04:03.980Z,90.70
2017-09-15T03:06:32.296Z,90.70
2017-09-15T03:09:00.633Z,90.70
2017-09-15T03:11:28.952Z,90.70
2017-09-15T03:13:57.288Z,90.80
2017-09-15T03:16:25.603Z,90.90
2017-09-15T03:18:53.956Z,91.00
2017-09-15T03:21:22.272Z,91.00
2017-09-15T03:23:50.591Z,91.20
2017-09-15T03:26:18.923Z,90.90
2017-09-15T03:28:47.232Z,91.00
2017-09-15T03:31:15.567Z,90.90
2017-09-15T03:33:43.876Z,90.90
2017-09-15T03:36:12.229Z,90.90
2017-09-15T03:38:40.544Z,90.80
2017-09-15T03:41:08.856Z,90.90
2017-09-15T03:43:37.192Z,90.90
2017-09-15T03:46:05.512Z,90.90
2017-09-15T03:48:33.843Z,91.00
2017-09-15T03:51:02.160Z,90.90
2017-09-15T03:53:30.508Z,90.90
2017-09-15T03:55:58.820Z,91.00
2017-09-15T03:58:27.134Z,91.00
2017-09-15T04:00:55.497Z,90.90
2017-09-15T04:03:23.815Z,90.90
2017-09-15T04:05:52.147Z,90.90
2017-09-15T04:08:20.471Z,91.00
2017-09-15T04:10:48.812Z,91.00
2017-09-15T04:13:17.124Z,91.00
2017-09-15T04:15:45.432Z,91.00
2017-09-15T04:18:13.763Z,91.00
2017-09-15T04:20:42.087Z,90.90
2017-09-15T04:23:10.458Z,90.80
2017-09-15T04:25:38.770Z,90.80
2017-09-15T04:28:07.108Z,90.80
2017-09-15T04:30:35.425Z,90.70
2017-09-15T04:33:03.740Z,90.60
2017-09-15T04:35:32.077Z,90.60
2017-09-15T04:38:00.392Z,91.00
2017-09-15T04:40:28.729Z,90.90
2017-09-15T04:42:57.044Z,90.50
2017-09-15T04:45:25.399Z,90.40
2017-09-15T04:47:53.725Z,90.30
2017-09-15T04:50:22.036Z,90.30
2017-09-15T04:52:50.381Z,90.30
2017-09-15T04:55:18.696Z,90.30
2017-09-15T04:57:47.037Z,90.30
2017-09-15T05:00:15.352Z,90.20
2017-09-15T05:02:43.695Z,90.20
2017-09-15T05:05:12.012Z,90.20
2017-09-15T05:07:40.324Z,90.20
2017-09-15T05:10:08.656Z,90.10
2017-09-15T05:12:36.976Z,90.10
2017-09-15T05:15:05.314Z,90.10
2017-09-15T05:17:33.637Z,90.10
2017-09-15T05:20:01.994Z,90.10
2017-09-15T05:22:30.329Z,90.10
2017-09-15T05:24:58.656Z,90.10
2017-09-15T05:27:26.992Z,90.10
2017-09-15T05:29:55.313Z,90.10
2017-09-15T05:32:23.652Z,90.10
2017-09-15T05:34:51.972Z,90.10
2017-09-15T05:37:20.329Z,90.00
2017-09-15T05:39:47.881Z,90.00
2017-09-15T05:42:16.200Z,89.90
2017-09-15T05:44:44.532Z,89.70
2017-09-15T05:47:12.852Z,89.60
2017-09-15T05:49:41.416Z,89.70
2017-09-15T05:52:09.752Z,89.70
2017-09-15T05:54:38.107Z,89.70
2017-09-15T05:57:06.444Z,89.80
2017-09-15T05:59:34.808Z,89.90
2017-09-15T06:02:03.146Z,89.70
2017-09-15T06:04:31.461Z,89.70
2017-09-15T06:06:59.812Z,89.60
2017-09-15T06:09:28.124Z,89.40
2017-09-15T06:11:56.480Z,89.20
2017-09-15T06:14:24.796Z,89.10
2017-09-15T06:16:53.552Z,89.00
2017-09-15T06:19:21.892Z,89.10
2017-09-15T06:21:50.204Z,89.00
2017-09-15T06:24:18.541Z,89.00
2017-09-15T06:26:46.844Z,88.20
2017-09-15T06:29:15.231Z,87.60
2017-09-15T06:31:43.549Z,86.60
2017-09-15T06:34:11.865Z,86.10
2017-09-15T06:36:40.196Z,85.10
2017-09-15T06:39:08.503Z,84.90
2017-09-15T06:41:36.845Z,84.60
2017-09-15T06:44:05.155Z,84.60
2017-09-15T06:46:33.504Z,84.50
2017-09-15T06:49:01.820Z,84.80
2017-09-15T06:51:30.175Z,84.90
2017-09-15T06:53:58.492Z,84.80
2017-09-15T06:56:26.804Z,84.30
2017-09-15T06:58:55.136Z,84.30
2017-09-15T07:01:23.468Z,84.10
2017-09-15T07:03:51.802Z,83.70
2017-09-15T07:06:20.120Z,83.40
2017-09-15T07:08:48.453Z,82.80
2017-09-15T07:11:16.768Z,82.50
2017-09-15T07:13:44.356Z,83.40
2017-09-15T07:16:12.673Z,81.30
2017-09-15T07:18:40.995Z,80.50
2017-09-15T07:21:09.332Z,79.60
2017-09-15T07:23:37.650Z,79.20
2017-09-15T07:26:05.988Z,78.90
2017-09-15T07:28:34.304Z,78.20
2017-09-15T07:31:02.648Z,78.00
2017-09-15T07:33:30.957Z,78.20
2017-09-15T07:35:58.546Z,78.20
2017-09-15T07:38:26.860Z,78.30
2017-09-15T07:40:55.175Z,78.20
2017-09-15T07:43:23.511Z,78.30
2017-09-15T07:45:51.825Z,77.80
2017-09-15T07:48:20.160Z,77.60
2017-09-15T07:50:48.484Z,77.10
2017-09-15T07:53:16.820Z,77.20
2017-09-15T07:55:45.132Z,76.60
2017-09-15T07:58:13.444Z,76.40
2017-09-15T08:00:41.860Z,76.00
2017-09-15T08:03:09.409Z,76.00
2017-09-15T08:05:37.745Z,74.50
2017-09-15T08:08:06.061Z,73.60
2017-09-15T08:10:34.409Z,73.10
2017-09-15T08:13:02.734Z,74.60
2017-09-15T08:15:31.104Z,73.80
2017-09-15T08:17:59.421Z,74.20
2017-09-15T08:20:27.732Z,75.20
2017-09-15T08:22:56.064Z,74.50
2017-09-15T08:25:24.385Z,74.10
2017-09-15T08:27:52.743Z,74.60
2017-09-15T08:30:21.053Z,74.40
2017-09-15T08:32:49.413Z,73.20
2017-09-15T08:35:17.915Z,72.70
2017-09-15T08:37:46.276Z,72.30
2017-09-15T08:40:14.595Z,73.00
2017-09-15T08:42:42.912Z,73.00
2017-09-15T08:45:11.247Z,72.50
2017-09-15T08:47:39.551Z,72.30
2017-09-15T08:50:07.889Z,72.40
2017-09-15T08:52:35.460Z,72.40
2017-09-15T08:55:03.817Z,73.00
2017-09-15T08:57:32.138Z,72.80
2017-09-15T09:00:00.493Z,73.00
2017-09-15T09:02:28.799Z,72.70
2017-09-15T09:04:57.113Z,72.40
2017-09-15T09:07:25.474Z,71.40
2017-09-15T09:09:53.793Z,69.80
2017-09-15T09:12:22.157Z,67.70
2017-09-15T09:14:50.471Z,66.70
2017-09-15T09:17:18.806Z,66.00
2017-09-15T09:19:47.112Z,66.40
2017-09-15T09:22:15.464Z,65.50
2017-09-15T09:24:43.776Z,65.40
2017-09-15T09:27:12.083Z,65.30
2017-09-15T09:29:40.412Z,65.40
2017-09-15T09:32:08.728Z,64.90
2017-09-15T09:34:36.293Z,64.70
2017-09-15T09:37:04.604Z,65.00
2017-09-15T09:39:33.078Z,66.00
2017-09-15T09:42:01.404Z,66.90
2017-09-15T09:44:29.712Z,68.10
2017-09-15T09:46:58.048Z,68.80
2017-09-15T09:49:26.362Z,69.20
2017-09-15T09:51:54.695Z,68.70
2017-09-15T09:54:23.009Z,68.10
2017-09-15T09:56:50.600Z,67.90
2017-09-15T09:59:18.936Z,67.10
2017-09-15T10:01:47.247Z,66.40
2017-09-15T10:04:15.759Z,66.10
2017-09-15T10:06:44.117Z,64.90
2017-09-15T10:09:13.551Z,64.90
2017-09-15T10:11:41.856Z,65.00
2017-09-15T10:14:11.557Z,64.60
2017-09-15T10:16:39.896Z,62.80
2017-09-15T10:19:08.234Z,61.80
2017-09-15T10:21:36.781Z,59.60
2017-09-15T10:24:05.096Z,59.70
2017-09-15T10:26:33.428Z,59.90
2017-09-15T10:29:02.616Z,60.10
2017-09-15T10:31:31.004Z,60.20
2017-09-15T10:33:59.322Z,60.20
2017-09-15T10:36:27.909Z,61.00
2017-09-15T10:38:56.277Z,62.90
2017-09-15T10:41:24.660Z,64.50
2017-09-15T10:43:53.028Z,64.70
2017-09-15T10:46:21.350Z,65.50
2017-09-15T10:48:50.009Z,64.70
2017-09-15T10:51:19.097Z,64.80
2017-09-15T10:53:47.025Z,64.80
2017-09-15T10:56:15.332Z,65.00
2017-09-15T10:58:49.433Z,65.20
2017-09-15T11:01:17.744Z,64.00
2017-09-15T11:03:46.084Z,60.40
2017-09-15T11:06:14.414Z,59.90
2017-09-15T11:08:42.724Z,59.70
2017-09-15T11:11:11.057Z,59.00
2017-09-15T11:13:39.365Z,57.50
2017-09-15T11:16:07.700Z,56.20
2017-09-15T11:18:36.012Z,55.80
2017-09-15T11:21:04.531Z,55.50
2017-09-15T11:23:32.869Z,54.80
2017-09-15T11:26:01.200Z,56.90
2017-09-15T11:28:29.512Z,59.00
2017-09-15T11:30:58.144Z,61.70
2017-09-15T11:33:26.475Z,62.30
2017-09-15T11:35:54.023Z,62.30
2017-09-15T11:38:22.356Z,65.50
2017-09-15T11:40:50.665Z,66.90
2017-09-15T11:43:19.004Z,67.10
2017-09-15T11:45:47.312Z,66.30
2017-09-15T11:48:15.640Z,66.10
2017-09-15T11:50:43.957Z,66.80
2017-09-15T11:53:12.334Z,66.40
2017-09-15T11:55:40.684Z,66.80
2017-09-15T11:58:09.008Z,67.50
2017-09-15T12:00:37.340Z,67.10
2017-09-15T12:03:05.658Z,67.20
2017-09-15T12:05:33.996Z,68.60
2017-09-15T12:08:02.304Z,69.70
2017-09-15T12:10:30.645Z,69.90
2017-09-15T12:12:58.960Z,70.40
2017-09-15T12:15:27.320Z,70.30
2017-09-15T12:17:55.637Z,70.30
2017-09-15T12:20:23.954Z,68.80
2017-09-15T12:22:51.516Z,68.80
2017-09-15T12:25:19.064Z,67.20
2017-09-15T12:27:47.391Z,63.30
2017-09-15T12:30:15.700Z,63.30
2017-09-15T12:32:44.023Z,62.50
2017-09-15T12:35:12.340Z,62.50
2017-09-15T12:37:40.692Z,60.70
2017-09-15T12:40:09.005Z,60.60
2017-09-15T12:42:37.316Z,60.10
2017-09-15T12:45:05.649Z,59.60
2017-09-15T12:47:33.961Z,58.30
2017-09-15T12:50:02.302Z,59.00
2017-09-15T12:52:30.632Z,59.40
2017-09-15T12:54:58.960Z,59.00
2017-09-15T12:57:27.267Z,58.20
2017-09-15T12:59:55.620Z,57.50
2017-09-15T13:02:23.928Z,57.00
2017-09-15T13:04:52.239Z,57.40
2017-09-15T13:07:20.568Z,57.40
2017-09-15T13:09:48.888Z,56.60
2017-09-15T13:12:17.220Z,56.70
2017-09-15T13:14:45.540Z,56.90
2017-09-15T13:17:13.872Z,55.80
2017-09-15T13:19:41.434Z,55.80
2017-09-15T13:22:09.744Z,54.50
2017-09-15T13:24:38.075Z,54.00
2017-09-15T13:27:06.384Z,53.40
2017-09-15T13:29:34.804Z,53.60
2017-09-15T13:32:03.116Z,53.00
2017-09-15T13:34:31.464Z,53.20
2017-09-15T13:36:59.773Z,54.80
2017-09-15T13:39:28.135Z,56.90
2017-09-15T13:41:56.456Z,59.20
2017-09-15T13:44:24.770Z,60.80
2017-09-15T13:46:53.112Z,61.80
2017-09-15T13:49:21.429Z,63.80
2017-09-15T13:51:49.000Z,62.90
2017-09-15T13:54:17.312Z,65.20
2017-09-15T13:56:45.652Z,65.00
2017-09-15T13:59:13.964Z,64.80
2017-09-15T14:01:42.316Z,63.30
2017-09-15T14:04:10.629Z,60.50
2017-09-15T14:06:38.948Z,59.80
2017-09-15T14:09:07.287Z,59.90
2017-09-15T14:11:35.604Z,59.20
2017-09-15T14:14:03.936Z,58.90
2017-09-15T14:16:32.244Z,58.50
2017-09-15T14:19:00.588Z,58.50
2017-09-15T14:21:28.920Z,59.10
2017-09-15T14:23:57.276Z,59.90
2017-09-15T14:26:25.584Z,60.60
2017-09-15T14:28:53.905Z,60.90
2017-09-15T14:31:22.246Z,60.40
2017-09-15T14:33:50.568Z,61.10
2017-09-15T14:36:18.908Z,61.20
2017-09-15T14:38:47.221Z,61.80
2017-09-15T14:41:15.564Z,62.50
2017-09-15T14:43:43.116Z,62.50
2017-09-15T14:46:10.692Z,63.30
2017-09-15T14:48:39.412Z,63.00
2017-09-15T14:51:07.736Z,60.50
2017-09-15T14:53:36.070Z,58.70
2017-09-15T14:56:04.384Z,58.00
2017-09-15T14:58:32.721Z,57.70
2017-09-15T15:01:01.040Z,57.90
2017-09-15T15:03:29.372Z,58.80
2017-09-15T15:05:57.681Z,59.90
2017-09-15T15:08:26.029Z,60.90
2017-09-15T15:10:54.340Z,61.50
2017-09-15T15:13:22.654Z,61.60
2017-09-15T15:15:51.699Z,60.30
2017-09-15T15:18:20.137Z,59.40
2017-09-15T15:20:48.504Z,58.10
2017-09-15T15:23:16.815Z,57.30
2017-09-15T15:25:45.817Z,56.80
2017-09-15T15:28:14.180Z,56.50
2017-09-15T15:30:42.536Z,57.50
2017-09-15T15:33:10.080Z,57.50
2017-09-15T15:35:38.397Z,58.20
2017-09-15T15:38:06.725Z,58.30
2017-09-15T15:40:35.037Z,57.50
2017-09-15T15:43:03.372Z,56.90
2017-09-15T15:45:31.687Z,56.90
2017-09-15T15:48:00.024Z,56.40
2017-09-15T15:50:28.344Z,56.80
2017-09-15T15:52:56.697Z,56.70
2017-09-15T15:55:25.019Z,57.30
2017-09-15T15:57:53.324Z,57.40
2017-09-15T16:00:21.651Z,57.60
2017-09-15T16:02:49.964Z,57.90
2017-09-15T16:05:18.304Z,58.00
2017-09-15T16:07:46.613Z,57.90
2017-09-15T16:10:14.944Z,57.80
2017-09-15T16:12:43.256Z,57.30
2017-09-15T16:15:11.607Z,56.30
2017-09-15T16:17:39.913Z,55.30
2017-09-15T16:20:08.236Z,56.30
2017-09-15T16:22:36.579Z,57.60
2017-09-15T16:25:04.904Z,58.50
2017-09-15T16:27:33.240Z,59.60
2017-09-15T16:30:01.555Z,60.10
2017-09-15T16:32:29.897Z,61.50
2017-09-15T16:34:58.236Z,62.60
2017-09-15T16:37:26.098Z,63.90
2017-09-15T16:40:00.144Z,65.70
2017-09-15T16:42:34.202Z,67.30
2017-09-15T16:45:08.057Z,68.40
2017-09-15T16:47:42.036Z,69.20
2017-09-15T16:50:10.422Z,70.80
2017-09-15T16:52:38.753Z,70.00
2017-09-15T16:55:07.157Z,70.30
2017-09-15T16:57:35.512Z,70.40
2017-09-15T17:00:03.850Z,71.30
2017-09-15T17:02:32.169Z,71.60
2017-09-15T17:05:00.584Z,71.90
2017-09-15T17:07:28.904Z,70.70
2017-09-15T17:09:57.316Z,71.10
2017-09-15T17:12:25.639Z,71.10
2017-09-15T17:14:54.041Z,71.20
2017-09-15T17:17:22.377Z,71.50
2017-09-15T17:19:50.695Z,72.80
2017-09-15T17:22:19.060Z,72.00
2017-09-15T17:24:46.649Z,72.00
2017-09-15T17:27:14.984Z,72.30
2017-09-15T17:29:43.313Z,72.80
2017-09-15T17:32:11.675Z,73.30
2017-09-15T17:34:40.030Z,73.60
2017-09-15T17:37:08.373Z,74.40
2017-09-15T17:39:36.709Z,75.00
2017-09-15T17:42:05.025Z,75.70
2017-09-15T17:44:33.360Z,76.30
2017-09-15T17:47:01.673Z,76.50
2017-09-15T17:49:30.028Z,76.60
2017-09-15T17:51:58.345Z,77.10
2017-09-15T17:54:26.660Z,77.60
2017-09-15T17:56:54.987Z,78.10
2017-09-15T17:59:23.324Z,78.40
2017-09-15T18:01:51.664Z,79.10
2017-09-15T18:04:19.989Z,79.80
2017-09-15T18:06:48.328Z,80.00
2017-09-15T18:09:16.639Z,80.40
2017-09-15T18:11:44.994Z,80.70
2017-09-15T18:14:13.305Z,81.00
2017-09-15T18:16:40.852Z,81.00
2017-09-15T18:19:09.188Z,81.60
2017-09-15T18:21:37.619Z,82.10
2017-09-15T18:24:06.234Z,82.40
2017-09-15T18:26:34.555Z,82.60
2017-09-15T18:29:02.896Z,82.70
2017-09-15T18:31:31.229Z,82.90
2017-09-15T18:33:59.583Z,82.90
2017-09-15T18:36:27.956Z,83.00
2017-09-15T18:38:56.272Z,83.10
2017-09-15T18:41:24.614Z,83.30
2017-09-15T18:43:52.928Z,84.50
2017-09-15T18:46:21.268Z,84.70
2017-09-15T18:48:49.597Z,84.80
2017-09-15T18:51:17.942Z,84.80
2017-09-15T18:53:46.260Z,84.80
2017-09-15T18:56:14.703Z,84.80
2017-09-15T18:58:43.020Z,85.00
2017-09-15T19:01:11.369Z,84.90
2017-09-15T19:03:39.738Z,85.10
2017-09-15T19:06:08.064Z,85.00
2017-09-15T19:08:36.409Z,85.10
2017-09-15T19:11:04.721Z,85.30
2017-09-15T19:13:32.356Z,85.20
2017-09-15T19:16:00.813Z,85.40
2017-09-15T19:18:29.249Z,85.20
2017-09-15T19:20:57.581Z,85.70
2017-09-15T19:23:25.933Z,85.80
2017-09-15T19:25:54.260Z,85.90
2017-09-15T19:28:22.700Z,85.70
2017-09-15T19:30:51.128Z,85.80
2017-09-15T19:33:19.596Z,86.00
2017-09-15T19:35:48.164Z,85.90
2017-09-15T19:38:16.480Z,85.90
2017-09-15T19:40:44.814Z,86.10
2017-09-15T19:43:13.124Z,86.30
2017-09-15T19:45:41.472Z,86.50
2017-09-15T19:48:09.788Z,86.40
2017-09-15T19:50:38.104Z,86.50
2017-09-15T19:53:06.441Z,86.60
2017-09-15T19:55:34.773Z,86.30
2017-09-15T19:58:03.156Z,86.40
2017-09-15T20:00:31.466Z,86.30
2017-09-15T20:02:59.804Z,86.40
2017-09-15T20:05:28.120Z,86.40
2017-09-15T20:07:56.473Z,86.60
2017-09-15T20:10:24.793Z,86.40
2017-09-15T20:12:53.097Z,86.40
2017-09-15T20:15:21.440Z,86.30
2017-09-15T20:17:49.752Z,86.50
2017-09-15T20:20:18.088Z,86.30
2017-09-15T20:22:46.405Z,86.50
2017-09-15T20:25:14.740Z,86.60
2017-09-15T20:27:43.055Z,86.50
2017-09-15T20:30:11.427Z,86.80
2017-09-15T20:32:39.748Z,86.70
2017-09-15T20:35:08.059Z,86.70
2017-09-15T20:37:36.404Z,86.70
2017-09-15T20:40:04.780Z,86.80
2017-09-15T20:42:33.128Z,86.70
2017-09-15T20:45:01.444Z,86.70
2017-09-15T20:47:29.788Z,86.70
2017-09-15T20:49:58.104Z,86.80
2017-09-15T20:52:26.465Z,86.80
2017-09-15T20:54:54.794Z,86.90
2017-09-15T20:57:23.108Z,86.90
2017-09-15T20:59:51.453Z,87.00
2017-09-15T21:02:19.764Z,87.00
2017-09-15T21:04:48.107Z,86.90
2017-09-15T21:07:16.423Z,86.90
2017-09-15T21:09:43.992Z,86.90
2017-09-15T21:12:12.322Z,87.00
2017-09-15T21:14:40.641Z,87.00
2017-09-15T21:17:08.993Z,87.00
2017-09-15T21:19:37.321Z,87.00
2017-09-15T21:22:05.656Z,86.90
2017-09-15T21:24:33.972Z,86.90
2017-09-15T21:27:02.308Z,86.90
2017-09-15T21:29:30.645Z,87.00
2017-09-15T21:31:58.991Z,87.20
2017-09-15T21:34:27.311Z,87.20
2017-09-15T21:36:55.620Z,87.20
2017-09-15T21:39:23.960Z,87.20
2017-09-15T21:41:52.281Z,87.00
2017-09-15T21:44:20.612Z,87.00
2017-09-15T21:46:48.196Z,87.00
2017-09-15T21:49:16.528Z,87.00
2017-09-15T21:51:44.848Z,87.00
2017-09-15T21:54:13.210Z,87.10
2017-09-15T21:56:41.516Z,87.00
2017-09-15T21:59:09.832Z,87.10
2017-09-15T22:01:38.188Z,87.20
2017-09-15T22:04:12.220Z,87.00
2017-09-15T22:06:40.564Z,87.20
2017-09-15T22:09:08.889Z,87.00
2017-09-15T22:11:37.245Z,87.10
2017-09-15T22:14:04.796Z,87.10
2017-09-15T22:16:33.160Z,86.90
2017-09-15T22:19:01.484Z,86.90
2017-09-15T22:21:29.808Z,87.00
2017-09-15T22:23:58.152Z,86.90
2017-09-15T22:26:26.468Z,87.00
2017-09-15T22:28:54.808Z,87.20
2017-09-15T22:31:23.128Z,87.10
2017-09-15T22:33:51.488Z,87.10
2017-09-15T22:36:19.809Z,87.20
2017-09-15T22:38:48.157Z,87.30
2017-09-15T22:41:16.476Z,87.60
2017-09-15T22:43:44.784Z,87.60
2017-09-15T22:46:13.117Z,87.80
2017-09-15T22:48:41.436Z,87.70
2017-09-15T22:51:09.772Z,87.70
2017-09-15T22:53:38.111Z,87.70
2017-09-15T22:56:06.448Z,88.00
2017-09-15T22:58:34.759Z,87.90
2017-09-15T23:01:03.114Z,87.80
2017-09-15T23:03:31.431Z,87.70
2017-09-15T23:05:59.797Z,87.70
2017-09-15T23:08:28.140Z,87.60
2017-09-15T23:10:56.466Z,87.50
2017-09-15T23:13:24.817Z,87.30
2017-09-15T23:15:53.140Z,87.30
2017-09-15T23:18:21.592Z,87.20
2017-09-15T23:20:49.926Z,87.30
2017-09-15T23:23:18.273Z,87.30
2017-09-15T23:25:46.584Z,87.10
2017-09-15T23:28:14.928Z,87.10
2017-09-15T23:30:43.236Z,87.30
2017-09-15T23:33:11.552Z,87.30
2017-09-15T23:35:39.892Z,87.40
2017-09-15T23:38:08.200Z,87.30
2017-09-15T23:40:36.532Z,87.40
2017-09-15T23:43:04.839Z,87.40
2017-09-15T23:45:33.176Z,87.40
2017-09-15T23:48:01.493Z,87.70
2017-09-15T23:50:29.832Z,87.90
2017-09-15T23:52:58.149Z,88.00
2017-09-15T23:55:26.459Z,88.00
2017-09-15T23:57:54.783Z,88.00
